Time;durP1;ratioP1;P1;durP2;ratioP2;P2;SDS_P1;SDS_P2;PMS_P1;PMS_P2;Temp;Humidity;BMP_temperature;BMP_pressure;BME280_temperature;BME280_humidity;BME280_pressure;Samples;Min_cycle;Max_cycle;Signal;HPM_P1;HPM_P2
2021/11/14 00:02:20;;;;;;;81.93;31.27;;;;;;;6.65;100.00;101250.19;7394784;19;21600;-52
2021/11/14 00:04:52;;;;;;;69.10;31.10;;;;;;;6.70;100.00;101243.66;7407165;19;20385;-50
2021/11/14 00:07:22;;;;;;;62.50;25.80;;;;;;;6.62;100.00;101250.88;7395363;19;20430;-53
2021/11/14 00:09:51;;;;;;;62.43;27.17;;;;;;;6.58;100.00;101254.91;7401700;19;20394;-54
2021/11/14 00:12:21;;;;;;;54.00;25.30;;;;;;;6.57;100.00;101258.25;7395424;19;20431;-49
2021/11/14 00:14:50;;;;;;;57.63;26.97;;;;;;;6.64;100.00;101259.53;7401876;19;20420;-51
2021/11/14 00:17:21;;;;;;;59.00;26.30;;;;;;;6.72;100.00;101260.06;7393713;19;20387;-49
2021/11/14 00:19:53;;;;;;;57.50;25.67;;;;;;;6.74;100.00;101261.94;7401256;19;20390;-50
2021/11/14 00:22:23;;;;;;;58.20;23.93;;;;;;;6.70;100.00;101266.75;7394242;19;20421;-51
2021/11/14 00:24:52;;;;;;;51.93;24.63;;;;;;;6.65;100.00;101271.56;7401872;19;20387;-48
2021/11/14 00:27:22;;;;;;;55.87;24.67;;;;;;;6.49;100.00;101267.09;7398501;19;20458;-50
2021/11/14 00:29:51;;;;;;;57.00;25.27;;;;;;;6.46;100.00;101275.47;7400560;19;20914;-48
2021/11/14 00:32:21;;;;;;;56.77;26.17;;;;;;;6.64;100.00;101274.03;7394259;19;20538;-52
2021/11/14 00:34:53;;;;;;;65.47;28.87;;;;;;;6.65;100.00;101281.84;7401361;19;20453;-52
2021/11/14 00:37:23;;;;;;;61.13;26.40;;;;;;;6.67;100.00;101281.94;7393498;19;20683;-49
2021/11/14 00:39:52;;;;;;;51.13;24.53;;;;;;;6.78;100.00;101283.53;7400808;19;20393;-53
2021/11/14 00:42:21;;;;;;;51.90;24.63;;;;;;;6.59;100.00;101282.31;7393707;19;20509;-54
2021/11/14 00:44:51;;;;;;;65.10;29.73;;;;;;;6.74;100.00;101286.69;7401034;19;20400;-46
2021/11/14 00:47:21;;;;;;;57.50;26.70;;;;;;;6.75;100.00;101281.66;7396842;19;20458;-52
2021/11/14 00:49:53;;;;;;;64.63;29.30;;;;;;;6.72;100.00;101283.13;7401511;19;20396;-53
2021/11/14 00:52:23;;;;;;;72.97;31.30;;;;;;;6.91;100.00;101289.47;7393740;19;20440;-55
2021/11/14 00:54:52;;;;;;;78.10;35.83;;;;;;;7.05;100.00;101287.78;7404072;19;20392;-50
2021/11/14 00:57:21;;;;;;;68.47;30.33;;;;;;;6.98;100.00;101287.38;7398555;19;20497;-52
2021/11/14 00:59:51;;;;;;;65.17;28.87;;;;;;;6.98;100.00;101289.94;7400123;19;20390;-53
2021/11/14 01:02:20;;;;;;;65.50;30.53;;;;;;;6.91;100.00;101295.47;7393217;19;20478;-51
2021/11/14 01:04:53;;;;;;;66.80;28.30;;;;;;;6.96;100.00;101298.34;7400535;19;20704;-55
2021/11/14 01:07:22;;;;;;;56.33;23.90;;;;;;;7.00;100.00;101306.34;7393214;19;20508;-51
2021/11/14 01:09:52;;;;;;;58.90;25.07;;;;;;;7.09;100.00;101300.03;7399763;19;20446;-51
2021/11/14 01:12:21;;;;;;;62.03;27.07;;;;;;;6.88;100.00;101306.44;7396507;19;20918;-51
2021/11/14 01:14:51;;;;;;;63.97;25.20;;;;;;;6.87;100.00;101312.34;7400097;19;20460;-50
2021/11/14 01:17:20;;;;;;;66.20;27.17;;;;;;;6.90;100.00;101314.22;7392423;19;20396;-48
2021/11/14 01:19:53;;;;;;;59.07;25.20;;;;;;;6.87;100.00;101314.91;7401441;19;20396;-48
2021/11/14 01:22:22;;;;;;;62.33;25.20;;;;;;;6.69;100.00;101321.38;7392687;19;20518;-53
2021/11/14 01:24:52;;;;;;;61.80;25.87;;;;;;;6.68;100.00;101317.06;7399860;19;20405;-52
2021/11/14 01:27:21;;;;;;;55.87;25.50;;;;;;;6.74;100.00;101322.59;7396573;19;20429;-52
2021/11/14 01:29:51;;;;;;;58.10;25.83;;;;;;;6.75;100.00;101315.00;7398659;19;20850;-56
2021/11/14 01:32:20;;;;;;;66.13;27.00;;;;;;;6.87;100.00;101325.19;7390158;19;20426;-51
2021/11/14 01:34:53;;;;;;;63.67;25.53;;;;;;;6.91;100.00;101325.41;7395617;19;20393;-53
2021/11/14 01:37:23;;;;;;;60.40;25.80;;;;;;;6.99;100.00;101322.50;7388599;19;20429;-53
2021/11/14 01:39:52;;;;;;;62.00;26.83;;;;;;;7.12;100.00;101326.78;7395236;19;20445;-51
2021/11/14 01:42:22;;;;;;;59.93;25.37;;;;;;;7.10;100.00;101330.94;7392495;19;20436;-53
2021/11/14 01:44:51;;;;;;;59.53;25.90;;;;;;;7.01;100.00;101338.00;7395837;19;20397;-52
2021/11/14 01:47:21;;;;;;;55.17;23.83;;;;;;;7.06;100.00;101336.66;7388232;19;20391;-48
2021/11/14 01:49:53;;;;;;;55.13;24.70;;;;;;;6.87;100.00;101338.00;7395622;19;20398;-55
2021/11/14 01:52:23;;;;;;;55.80;23.97;;;;;;;6.84;100.00;101344.59;7387467;19;20440;-49
2021/11/14 01:54:53;;;;;;;59.67;26.00;;;;;;;6.79;100.00;101344.31;7395299;19;20388;-57
2021/11/14 01:57:24;;;;;;;63.87;25.23;;;;;;;6.96;100.00;101349.66;7391953;19;20409;-50
2021/11/14 01:59:54;;;;;;;65.77;25.20;;;;;;;6.88;100.00;101346.59;7394968;19;20409;-49
2021/11/14 02:02:23;;;;;;;59.27;25.27;;;;;;;6.93;100.00;101346.91;7387580;19;20414;-52
2021/11/14 02:04:56;;;;;;;73.97;25.97;;;;;;;6.98;100.00;101358.34;7395761;19;20401;-55
2021/11/14 02:07:26;;;;;;;73.57;25.80;;;;;;;7.00;100.00;101351.63;7390171;19;20492;-53
2021/11/14 02:09:55;;;;;;;64.27;25.20;;;;;;;7.15;100.00;101357.78;7395685;19;20482;-53
2021/11/14 02:12:25;;;;;;;64.90;27.23;;;;;;;7.24;100.00;101361.75;7390906;19;20418;-55
2021/11/14 02:14:54;;;;;;;66.37;26.00;;;;;;;7.19;100.00;101364.00;7396622;19;20455;-53
2021/11/14 02:17:24;;;;;;;64.53;26.30;;;;;;;7.05;100.00;101360.53;7388651;19;20410;-55
2021/11/14 02:19:56;;;;;;;63.27;25.70;;;;;;;7.15;100.00;101360.34;7394962;19;20392;-51
2021/11/14 02:22:25;;;;;;;53.03;22.83;;;;;;;7.29;100.00;101370.63;7383427;19;20476;-53
2021/11/14 02:24:55;;;;;;;60.63;23.47;;;;;;;7.16;100.00;101362.13;7398115;19;20446;-53
2021/11/14 02:27:24;;;;;;;53.90;23.67;;;;;;;7.21;100.00;101366.66;7394303;19;20421;-54
2021/11/14 02:29:54;;;;;;;51.67;22.80;;;;;;;7.20;100.00;101373.47;7397245;19;20453;-50
2021/11/14 02:32:23;;;;;;;58.20;22.47;;;;;;;7.12;100.00;101374.63;7400738;19;20424;-52
2021/11/14 02:35:15;;;;;;;46.70;22.63;;;;;;;7.25;100.00;101382.38;7405676;19;20401;-53
2021/11/14 02:37:45;;;;;;;57.87;23.50;;;;;;;7.12;100.00;101378.09;7397515;19;20477;-47
2021/11/14 02:40:16;;;;;;;53.83;21.47;;;;;;;7.14;100.00;101376.53;7404843;19;20398;-56
2021/11/14 02:42:48;;;;;;;54.20;22.67;;;;;;;7.26;100.00;101384.16;7403721;19;20421;-53
2021/11/14 02:45:19;;;;;;;52.70;22.70;;;;;;;7.18;100.00;101381.88;7405287;19;20715;-53
2021/11/14 02:47:49;;;;;;;50.70;21.40;;;;;;;7.13;100.00;101389.28;7397382;19;20417;-55
2021/11/14 02:50:23;;;;;;;57.80;22.80;;;;;;;7.10;100.00;101386.50;7405024;19;20388;-54
2021/11/14 02:52:53;;;;;;;51.67;21.70;;;;;;;6.97;100.00;101388.25;7395702;19;20472;-54
2021/11/14 02:55:25;;;;;;;54.30;21.80;;;;;;;6.86;100.00;101390.09;7405220;19;20457;-52
2021/11/14 02:57:56;;;;;;;52.33;22.10;;;;;;;6.86;100.00;101400.34;7405076;19;20446;-52
2021/11/14 03:00:28;;;;;;;56.83;21.10;;;;;;;6.93;100.00;101398.22;7404191;19;20457;-54
2021/11/14 03:02:58;;;;;;;53.13;21.67;;;;;;;6.98;100.00;101399.41;7396305;19;20430;-55
2021/11/14 03:05:30;;;;;;;47.87;20.73;;;;;;;6.98;100.00;101399.41;7404681;19;20477;-54
2021/11/14 03:08:00;;;;;;;60.07;22.23;;;;;;;7.16;100.00;101405.75;7397134;19;20414;-55
2021/11/14 03:10:31;;;;;;;48.20;21.47;;;;;;;7.03;100.00;101409.19;7403821;19;20385;-47
2021/11/14 03:13:03;;;;;;;50.80;21.10;;;;;;;6.98;100.00;101417.38;7398279;19;20530;-55
2021/11/14 03:15:35;;;;;;;52.33;21.50;;;;;;;6.95;100.00;101418.06;7404500;19;20747;-54
2021/11/14 03:18:05;;;;;;;55.20;22.50;;;;;;;7.09;100.00;101411.28;7395103;19;20441;-48
2021/11/14 03:20:38;;;;;;;54.13;21.23;;;;;;;7.03;100.00;101409.19;7403293;19;20450;-47
2021/11/14 03:23:08;;;;;;;46.80;20.90;;;;;;;7.05;100.00;101416.09;7395844;19;20476;-55
2021/11/14 03:25:38;;;;;;;49.10;21.87;;;;;;;6.89;100.00;101415.94;7404066;19;20939;-54
2021/11/14 03:28:08;;;;;;;52.83;22.00;;;;;;;6.82;100.00;101429.16;7396017;19;20486;-53
2021/11/14 03:30:38;;;;;;;52.43;22.37;;;;;;;6.92;100.00;101433.22;7403016;19;20389;-53
2021/11/14 03:33:09;;;;;;;69.50;25.00;;;;;;;6.83;100.00;101430.91;7394376;19;20434;-55
2021/11/14 03:35:45;;;;;;;61.00;23.73;;;;;;;6.68;100.00;101432.44;7403861;19;20381;-53
2021/11/14 03:38:15;;;;;;;72.17;23.23;;;;;;;6.69;100.00;101431.66;7395163;19;20460;-52
2021/11/14 03:40:45;;;;;;;70.40;25.53;;;;;;;6.70;100.00;101434.34;7402846;19;20387;-52
2021/11/14 03:43:15;;;;;;;67.97;25.17;;;;;;;6.68;100.00;101435.03;7398677;19;20485;-54
2021/11/14 03:45:45;;;;;;;83.03;25.53;;;;;;;6.62;100.00;101438.94;7403374;19;20383;-55
2021/11/14 03:48:15;;;;;;;84.40;27.90;;;;;;;6.69;100.00;101437.69;7395945;19;20424;-52
2021/11/14 03:50:47;;;;;;;82.13;28.03;;;;;;;6.72;100.00;101439.59;7402353;19;20388;-56
2021/11/14 03:53:17;;;;;;;91.73;29.90;;;;;;;6.77;100.00;101435.63;7395118;19;20481;-55
2021/11/14 03:55:47;;;;;;;98.40;29.60;;;;;;;6.75;100.00;101437.22;7402787;19;20393;-55
2021/11/14 03:58:17;;;;;;;90.80;29.57;;;;;;;6.76;100.00;101444.13;7396519;19;20460;-49
2021/11/14 04:00:50;;;;;;;120.93;38.70;;;;;;;6.74;100.00;101440.56;7402108;19;20394;-53
2021/11/14 04:03:20;;;;;;;106.20;31.80;;;;;;;6.72;100.00;101437.03;7397869;19;20506;-46
2021/11/14 04:05:52;;;;;;;113.47;32.07;;;;;;;6.77;100.00;101445.03;7402776;19;20394;-52
2021/11/14 04:08:25;;;;;;;115.70;34.03;;;;;;;6.77;100.00;101445.88;7398701;19;20429;-53
2021/11/14 04:10:56;;;;;;;119.20;35.10;;;;;;;6.82;100.00;101447.09;7401601;19;20378;-55
2021/11/14 04:13:26;;;;;;;109.57;32.93;;;;;;;6.72;100.00;101443.03;7395083;19;20431;-55
2021/11/14 04:15:56;;;;;;;106.63;33.50;;;;;;;6.80;100.00;101450.34;7402568;19;20402;-54
2021/11/14 04:18:26;;;;;;;104.63;36.30;;;;;;;6.95;100.00;101451.41;7396479;19;20458;-51
2021/11/14 04:20:58;;;;;;;103.97;35.47;;;;;;;6.95;100.00;101453.06;7401001;19;20454;-47
2021/11/14 04:23:28;;;;;;;100.53;33.63;;;;;;;6.88;100.00;101460.34;7397939;19;20416;-51
2021/11/14 04:25:57;;;;;;;100.57;36.47;;;;;;;7.02;100.00;101453.59;7402053;19;20468;-52
2021/11/14 04:28:27;;;;;;;109.67;36.63;;;;;;;6.87;100.00;101458.56;7397184;19;20434;-54
2021/11/14 04:30:57;;;;;;;110.10;37.00;;;;;;;6.91;100.00;101457.09;7400637;19;20407;-54
2021/11/14 04:33:26;;;;;;;100.30;34.33;;;;;;;6.93;100.00;101465.81;7397655;19;20413;-50
2021/11/14 04:35:59;;;;;;;107.53;36.40;;;;;;;6.98;100.00;101471.25;7401786;19;20439;-50
2021/11/14 04:38:28;;;;;;;114.07;35.40;;;;;;;6.93;100.00;101472.59;7395218;19;20500;-51
2021/11/14 04:40:58;;;;;;;95.93;35.33;;;;;;;6.91;100.00;101474.19;7402015;19;20402;-54
2021/11/14 04:43:28;;;;;;;101.13;34.70;;;;;;;6.93;100.00;101477.75;7393216;19;20489;-49
2021/11/14 04:45:57;;;;;;;97.23;34.40;;;;;;;6.88;100.00;101480.88;7405575;19;20693;-47
2021/11/14 04:48:27;;;;;;;97.30;34.87;;;;;;;6.93;100.00;101472.59;7397512;19;20422;-49
2021/11/14 04:50:59;;;;;;;105.20;35.67;;;;;;;7.00;100.00;101478.28;7400418;19;20408;-49
2021/11/14 04:53:29;;;;;;;108.70;35.80;;;;;;;6.98;100.00;101477.25;7395960;19;20443;-51
2021/11/14 04:56:00;;;;;;;97.57;35.07;;;;;;;7.05;100.00;101481.13;7400974;19;20389;-54
2021/11/14 04:58:29;;;;;;;91.67;34.13;;;;;;;7.03;100.00;101477.59;7397869;19;20444;-46
2021/11/14 05:00:59;;;;;;;95.83;34.93;;;;;;;7.03;100.00;101485.28;7399828;19;20570;-51
2021/11/14 05:03:29;;;;;;;98.20;33.80;;;;;;;6.84;100.00;101484.03;7396664;19;20450;-46
2021/11/14 05:06:01;;;;;;;97.43;34.70;;;;;;;6.84;100.00;101494.28;7400889;19;20399;-46
2021/11/14 05:08:30;;;;;;;98.37;35.67;;;;;;;6.84;100.00;101494.28;7393053;19;20700;-54
2021/11/14 05:11:00;;;;;;;94.23;35.73;;;;;;;6.88;100.00;101495.38;7399476;19;20390;-52
2021/11/14 05:13:29;;;;;;;88.70;35.77;;;;;;;7.38;100.00;101496.16;7394488;19;20540;-46
2021/11/14 05:15:59;;;;;;;95.10;38.63;;;;;;;7.50;100.00;101488.34;7402940;19;20398;-54
2021/11/14 05:18:28;;;;;;;148.67;65.27;;;;;;;7.98;100.00;101491.44;7390463;19;20423;-57
2021/11/14 05:21:01;;;;;;;118.43;51.17;;;;;;;7.78;100.00;101497.84;7399064;19;20452;-49
2021/11/14 05:23:30;;;;;;;128.60;51.50;;;;;;;8.09;100.00;101492.13;7392166;19;20663;-53
2021/11/14 05:26:00;;;;;;;123.37;50.87;;;;;;;8.17;100.00;101497.75;7400072;19;20869;-55
2021/11/14 05:28:29;;;;;;;84.10;35.60;;;;;;;8.09;100.00;101502.41;7392942;19;20419;-52
2021/11/14 05:30:59;;;;;;;92.00;36.77;;;;;;;7.73;100.00;101499.25;7398697;19;20451;-55
2021/11/14 05:33:29;;;;;;;81.80;36.43;;;;;;;7.99;100.00;101505.19;7390993;19;20415;-48
2021/11/14 05:36:01;;;;;;;80.20;32.47;;;;;;;7.95;100.00;101509.25;7399902;19;20423;-57
2021/11/14 05:38:30;;;;;;;82.67;34.47;;;;;;;8.00;100.00;101514.69;7389598;19;20432;-50
2021/11/14 05:41:00;;;;;;;80.30;34.07;;;;;;;7.83;100.00;101525.66;7398689;19;20398;-54
2021/11/14 05:43:30;;;;;;;77.60;32.70;;;;;;;8.11;100.00;101521.41;7395627;19;20486;-51
2021/11/14 05:45:59;;;;;;;79.03;31.47;;;;;;;8.18;100.00;101528.72;7399395;19;20450;-55
2021/11/14 05:48:29;;;;;;;73.23;30.23;;;;;;;8.20;100.00;101536.53;7391618;19;20418;-53
2021/11/14 05:51:01;;;;;;;73.60;29.87;;;;;;;7.90;100.00;101537.19;7398535;19;20461;-55
2021/11/14 05:53:31;;;;;;;74.73;32.07;;;;;;;8.10;100.00;101542.72;7391316;19;20471;-55
2021/11/14 05:56:00;;;;;;;69.37;29.80;;;;;;;8.08;100.00;101557.16;7399160;19;20463;-52
2021/11/14 05:58:37;;;;;;;75.20;31.70;;;;;;;7.87;100.00;101551.53;7391874;19;20709;-57
2021/11/14 06:01:15;;;;;;;80.30;32.00;;;;;;;7.75;100.00;101564.47;7398248;19;20654;-54
2021/11/14 06:03:54;;;;;;;70.27;29.17;;;;;;;7.74;100.00;101554.97;7392753;19;20462;-53
2021/11/14 06:06:27;;;;;;;78.57;32.77;;;;;;;7.71;100.00;101576.22;7405862;19;20447;-57
2021/11/14 06:08:56;;;;;;;67.67;31.70;;;;;;;7.77;100.00;101579.19;7397507;19;20474;-54
2021/11/14 06:11:26;;;;;;;72.57;29.90;;;;;;;7.94;100.00;101580.28;7406445;19;20403;-53
2021/11/14 06:13:56;;;;;;;74.43;30.33;;;;;;;7.65;100.00;101594.66;7398583;19;20495;-54
2021/11/14 06:16:26;;;;;;;74.83;30.70;;;;;;;7.66;100.00;101587.84;7406295;19;20402;-52
2021/11/14 06:18:56;;;;;;;67.20;28.80;;;;;;;7.46;100.00;101604.47;7397399;19;20430;-52
2021/11/14 06:21:28;;;;;;;78.40;31.93;;;;;;;7.66;100.00;101598.13;7406017;19;20714;-54
2021/11/14 06:23:57;;;;;;;63.57;29.80;;;;;;;7.65;100.00;101602.38;7397911;19;20411;-54
2021/11/14 06:26:27;;;;;;;67.20;28.57;;;;;;;7.99;100.00;101605.41;7405839;19;20402;-55
2021/11/14 06:28:56;;;;;;;69.17;31.63;;;;;;;7.54;100.00;101609.34;7396717;19;20935;-53
2021/11/14 06:31:26;;;;;;;67.83;29.30;;;;;;;7.55;100.00;101620.53;7405857;19;20394;-57
2021/11/14 06:33:55;;;;;;;69.20;30.13;;;;;;;7.51;100.00;101628.78;7398070;19;20477;-51
2021/11/14 06:36:28;;;;;;;67.00;31.07;;;;;;;7.06;100.00;101634.31;7405695;19;20455;-53
2021/11/14 06:38:58;;;;;;;70.50;32.13;;;;;;;6.96;100.00;101632.78;7396946;19;20748;-54
2021/11/14 06:41:27;;;;;;;67.87;30.40;;;;;;;6.89;100.00;101639.13;7407131;19;20416;-55
2021/11/14 06:43:57;;;;;;;74.97;31.50;;;;;;;6.83;100.00;101654.09;7403626;19;20453;-55
2021/11/14 06:46:26;;;;;;;77.37;31.20;;;;;;;6.83;100.00;101650.66;7405250;19;20716;-51
2021/11/14 06:48:56;;;;;;;81.80;32.53;;;;;;;6.76;100.00;101657.00;7396351;19;20425;-47
2021/11/14 06:51:28;;;;;;;74.20;32.30;;;;;;;6.77;100.00;101666.47;7405157;19;20403;-54
2021/11/14 06:53:57;;;;;;;72.27;32.40;;;;;;;6.71;100.00;101668.59;7397424;19;20413;-55
2021/11/14 06:56:27;;;;;;;73.57;33.23;;;;;;;6.77;100.00;101678.44;7404958;19;20405;-54
2021/11/14 06:58:56;;;;;;;79.07;32.23;;;;;;;6.66;100.00;101672.53;7396239;19;20494;-54
2021/11/14 07:01:26;;;;;;;73.60;31.80;;;;;;;6.67;100.00;101687.13;7403501;19;20402;-52
2021/11/14 07:03:55;;;;;;;73.87;30.70;;;;;;;6.68;100.00;101691.47;7396862;19;20432;-55
2021/11/14 07:06:27;;;;;;;73.83;30.77;;;;;;;6.66;100.00;101691.38;7404682;19;20847;-46
2021/11/14 07:08:57;;;;;;;71.83;31.10;;;;;;;6.67;100.00;101700.84;7396097;19;20516;-56
2021/11/14 07:11:26;;;;;;;85.03;35.27;;;;;;;6.62;100.00;101697.94;7404263;19;20390;-50
2021/11/14 07:13:56;;;;;;;75.50;32.63;;;;;;;6.61;100.00;101703.84;7396086;19;20473;-53
2021/11/14 07:16:26;;;;;;;74.97;30.80;;;;;;;6.56;100.00;101707.75;7402839;19;20476;-54
2021/11/14 07:18:57;;;;;;;80.50;32.80;;;;;;;6.56;100.00;101705.19;7396519;19;20721;-45
2021/11/14 07:21:29;;;;;;;70.67;32.57;;;;;;;6.56;100.00;101718.00;7401718;19;20934;-53
2021/11/14 07:23:58;;;;;;;86.73;34.97;;;;;;;6.60;100.00;101714.00;7396307;19;20409;-51
2021/11/14 07:26:28;;;;;;;77.80;33.10;;;;;;;6.62;100.00;101718.47;7404038;19;20455;-51
2021/11/14 07:28:57;;;;;;;74.47;32.37;;;;;;;6.64;100.00;101726.28;7398638;19;20424;-51
2021/11/14 07:31:27;;;;;;;78.60;32.43;;;;;;;6.68;100.00;101735.09;7403814;19;20458;-49
2021/11/14 07:33:56;;;;;;;82.87;33.13;;;;;;;6.51;100.00;101741.53;7395367;19;20432;-52
2021/11/14 07:36:29;;;;;;;72.90;31.80;;;;;;;6.60;100.00;101737.97;7403694;19;20854;-52
2021/11/14 07:38:58;;;;;;;69.53;31.50;;;;;;;6.66;100.00;101744.34;7394969;19;20421;-54
2021/11/14 07:41:28;;;;;;;76.73;33.13;;;;;;;6.71;100.00;101749.03;7401635;19;20395;-53
2021/11/14 07:43:57;;;;;;;77.60;32.73;;;;;;;6.72;100.00;101744.81;7399583;19;20472;-49
2021/11/14 07:46:27;;;;;;;71.53;31.47;;;;;;;6.73;100.00;101751.72;7403359;19;20415;-54
2021/11/14 07:48:57;;;;;;;88.90;34.20;;;;;;;6.73;100.00;101746.56;7393396;19;20422;-56
2021/11/14 07:51:32;;;;;;;79.90;31.63;;;;;;;6.73;100.00;101749.13;7403360;19;20393;-53
2021/11/14 07:54:03;;;;;;;83.50;31.60;;;;;;;6.76;100.00;101751.91;7394737;19;20424;-49
2021/11/14 07:56:33;;;;;;;79.17;33.00;;;;;;;6.78;100.00;101760.63;7403136;19;20389;-54
2021/11/14 07:59:03;;;;;;;80.93;34.87;;;;;;;6.80;100.00;101753.94;7395019;19;20500;-49
2021/11/14 08:01:32;;;;;;;77.27;32.43;;;;;;;6.82;100.00;101762.63;7401153;19;20395;-47
2021/11/14 08:04:02;;;;;;;70.53;30.30;;;;;;;7.83;100.00;101762.03;7395262;19;20427;-50
2021/11/14 08:06:34;;;;;;;109.40;46.83;;;;;;;7.99;100.00;101762.19;7402740;19;20458;-47
2021/11/14 08:09:03;;;;;;;142.13;65.03;;;;;;;8.50;100.00;101763.91;7394706;19;20897;-51
2021/11/14 08:11:33;;;;;;;91.93;40.33;;;;;;;8.72;100.00;101764.47;7402607;19;20459;-51
2021/11/14 08:14:02;;;;;;;74.53;32.80;;;;;;;8.52;100.00;101771.78;7392275;19;20918;-52
2021/11/14 08:16:32;;;;;;;75.87;31.77;;;;;;;8.01;100.00;101782.06;7404359;19;20421;-51
2021/11/14 08:19:01;;;;;;;81.23;32.77;;;;;;;7.78;100.00;101788.16;7395749;19;20454;-52
2021/11/14 08:21:33;;;;;;;78.60;33.10;;;;;;;7.61;100.00;101790.47;7400315;19;20468;-48
2021/11/14 08:24:03;;;;;;;74.37;30.70;;;;;;;7.53;100.00;101797.63;7398043;19;20532;-55
2021/11/14 08:26:33;;;;;;;74.00;31.10;;;;;;;7.39;100.00;101798.31;7401555;19;20455;-50
2021/11/14 08:29:02;;;;;;;71.93;31.77;;;;;;;7.37;100.00;101795.63;7391465;19;20434;-54
2021/11/14 08:31:36;;;;;;;112.67;49.23;;;;;;;7.42;100.00;101802.00;7402973;19;20411;-51
2021/11/14 08:34:06;;;;;;;103.23;42.27;;;;;;;7.43;100.00;101803.78;7393987;19;20450;-48
2021/11/14 08:36:38;;;;;;;118.20;51.23;;;;;;;7.58;100.00;101805.66;7401611;19;20392;-53
2021/11/14 08:39:08;;;;;;;128.33;54.60;;;;;;;7.63;100.00;101808.56;7392155;19;20499;-48
2021/11/14 08:41:38;;;;;;;103.23;42.20;;;;;;;7.67;100.00;101806.31;7400777;19;20388;-46
2021/11/14 08:44:07;;;;;;;88.60;37.63;;;;;;;7.65;100.00;101813.00;7397488;19;20486;-55
2021/11/14 08:46:37;;;;;;;90.60;35.77;;;;;;;7.61;100.00;101817.81;7402746;19;20403;-52
2021/11/14 08:49:07;;;;;;;92.47;34.50;;;;;;;7.61;100.00;101826.44;7395494;19;20964;-54
2021/11/14 08:51:39;;;;;;;88.80;33.83;;;;;;;7.61;100.00;101830.66;7400822;19;20455;-52
2021/11/14 08:54:09;;;;;;;79.73;32.90;;;;;;;7.58;100.00;101826.19;7392656;19;20473;-50
2021/11/14 08:56:39;;;;;;;75.33;30.97;;;;;;;7.50;100.00;101841.06;7400934;19;20413;-54
2021/11/14 08:59:09;;;;;;;87.63;36.13;;;;;;;7.53;100.00;101837.81;7392670;19;20451;-51
2021/11/14 09:01:39;;;;;;;88.93;35.60;;;;;;;7.52;100.00;101842.06;7404151;19;20403;-53
2021/11/14 09:04:09;;;;;;;90.37;34.90;;;;;;;7.53;100.00;101843.84;7392211;19;20488;-50
2021/11/14 09:06:41;;;;;;;86.83;32.70;;;;;;;7.55;100.00;101846.53;7405313;19;20400;-48
2021/11/14 09:09:13;;;;;;;79.70;31.23;;;;;;;7.49;100.00;101851.22;7392231;19;20491;-51
2021/11/14 09:11:44;;;;;;;88.43;32.70;;;;;;;7.54;100.00;101849.88;7400281;19;20400;-55
2021/11/14 09:14:14;;;;;;;78.10;33.27;;;;;;;7.51;100.00;101859.94;7391769;19;20898;-48
2021/11/14 09:16:44;;;;;;;79.77;31.50;;;;;;;7.46;100.00;101866.41;7401856;19;20400;-53
2021/11/14 09:19:13;;;;;;;75.37;30.33;;;;;;;7.46;100.00;101868.97;7389804;19;20426;-47
2021/11/14 09:21:46;;;;;;;75.40;30.60;;;;;;;7.49;100.00;101871.78;7398900;19;20447;-51
2021/11/14 09:24:16;;;;;;;83.20;34.50;;;;;;;7.52;100.00;101870.31;7391731;19;20418;-46
2021/11/14 09:26:46;;;;;;;74.27;30.97;;;;;;;7.42;100.00;101884.16;7399654;19;20396;-47
2021/11/14 09:29:15;;;;;;;87.10;37.87;;;;;;;7.67;100.00;101878.25;7394821;19;20411;-46
2021/11/14 09:31:45;;;;;;;70.73;31.70;;;;;;;8.46;100.00;101894.78;7399603;19;20793;-48
2021/11/14 09:34:15;;;;;;;89.47;39.03;;;;;;;9.13;100.00;101881.22;7391517;19;20414;-45
2021/11/14 09:36:47;;;;;;;83.07;37.30;;;;;;;9.23;100.00;101888.75;7398489;19;20455;-50
2021/11/14 09:39:17;;;;;;;78.67;32.63;;;;;;;8.83;100.00;101892.19;7389783;19;20419;-52
2021/11/14 09:41:50;;;;;;;95.23;40.77;;;;;;;8.57;100.00;101911.84;7399017;19;20404;-53
2021/11/14 09:44:22;;;;;;;71.23;32.83;;;;;;;8.14;100.00;101917.47;7395371;19;20411;-53
2021/11/14 09:46:54;;;;;;;80.90;34.87;;;;;;;8.10;100.00;101912.88;7396613;19;20392;-50
2021/11/14 09:49:27;;;;;;;83.40;35.10;;;;;;;8.11;100.00;101909.56;7386928;19;20439;-55
2021/11/14 09:52:04;;;;;;;75.80;33.60;;;;;;;7.89;100.00;101920.88;7397718;19;20420;-48
2021/11/14 09:54:35;;;;;;;96.67;42.50;;;;;;;7.91;100.00;101916.75;7393792;19;20504;-53
2021/11/14 09:57:05;;;;;;;77.33;32.53;;;;;;;7.88;100.00;101925.88;7389429;19;21193;-55
2021/11/14 09:59:35;;;;;;;79.73;33.30;;;;;;;7.82;100.00;101923.78;7394892;19;20440;-54
2021/11/14 10:02:07;;;;;;;78.30;33.20;;;;;;;7.77;100.00;101926.03;7389144;19;20849;-55
2021/11/14 10:04:37;;;;;;;78.80;32.90;;;;;;;7.79;100.00;101928.72;7396021;19;20391;-56
2021/11/14 10:07:15;;;;;;;83.07;34.97;;;;;;;7.76;100.00;101929.38;7392600;19;20395;-52
2021/11/14 10:09:49;;;;;;;69.43;31.83;;;;;;;7.75;100.00;101926.69;7396214;19;20400;-51
2021/11/14 10:12:22;;;;;;;82.83;32.80;;;;;;;7.73;100.00;101933.41;7394207;19;20497;-56
2021/11/14 10:14:54;;;;;;;79.03;32.17;;;;;;;7.72;100.00;101937.66;7397530;19;20395;-56
2021/11/14 10:17:26;;;;;;;69.93;32.23;;;;;;;7.72;100.00;101936.75;7389709;19;20426;-51
2021/11/14 10:20:16;;;;;;;70.87;30.40;;;;;;;7.78;100.00;101944.88;7396936;19;20388;-55
2021/11/14 10:22:50;;;;;;;73.50;29.50;;;;;;;7.66;100.00;101953.53;7388802;19;20415;-50
2021/11/14 10:25:23;;;;;;;69.17;29.40;;;;;;;7.63;100.00;101947.28;7396963;19;20428;-52
2021/11/14 10:27:55;;;;;;;61.97;29.03;;;;;;;7.63;100.00;101947.28;7393241;19;20403;-52
2021/11/14 10:30:27;;;;;;;63.20;27.03;;;;;;;7.63;100.00;101952.41;7396506;19;20403;-54
2021/11/14 10:32:58;;;;;;;64.10;29.60;;;;;;;7.63;100.00;101955.84;7388741;19;20413;-53
2021/11/14 10:35:28;;;;;;;63.63;28.87;;;;;;;7.59;100.00;101958.97;7396838;19;20447;-58
2021/11/14 10:38:02;;;;;;;58.70;26.40;;;;;;;7.60;100.00;101962.44;7389907;19;20577;-51
2021/11/14 10:40:35;;;;;;;67.00;28.27;;;;;;;7.63;100.00;101963.56;7397073;19;20392;-52
2021/11/14 10:43:05;;;;;;;61.80;28.33;;;;;;;7.57;100.00;101965.69;7395535;19;20916;-52
2021/11/14 10:45:37;;;;;;;70.80;29.17;;;;;;;7.52;100.00;101962.78;7397519;19;20400;-51
2021/11/14 10:48:08;;;;;;;63.53;28.47;;;;;;;7.51;100.00;101973.84;7390423;19;20491;-52
2021/11/14 10:50:41;;;;;;;72.80;31.30;;;;;;;7.60;100.00;101973.63;7397286;19;20392;-55
2021/11/14 10:53:14;;;;;;;70.83;29.03;;;;;;;7.66;100.00;101974.06;7395710;19;20431;-50
2021/11/14 10:55:46;;;;;;;70.57;29.17;;;;;;;7.67;100.00;101980.09;7409857;19;20406;-56
2021/11/14 10:58:16;;;;;;;69.43;28.93;;;;;;;7.63;100.00;101981.53;7397665;19;20748;-49
2021/11/14 11:00:47;;;;;;;68.13;29.23;;;;;;;7.59;100.00;101974.38;7407057;19;20387;-52
2021/11/14 11:03:17;;;;;;;68.50;30.03;;;;;;;7.64;100.00;101975.63;7395886;19;20443;-52
2021/11/14 11:05:47;;;;;;;57.93;27.20;;;;;;;7.69;100.00;101974.28;7404296;19;20388;-50
2021/11/14 11:08:25;;;;;;;73.63;28.73;;;;;;;7.70;100.00;101976.06;7399827;19;20452;-54
2021/11/14 11:11:00;;;;;;;73.00;30.50;;;;;;;7.75;100.00;101978.09;7404172;19;21314;-53
2021/11/14 11:13:35;;;;;;;72.03;28.67;;;;;;;7.79;100.00;101980.97;7396628;19;20492;-53
2021/11/14 11:16:07;;;;;;;62.50;28.20;;;;;;;7.87;100.00;101989.25;7404536;19;20447;-54
2021/11/14 11:18:38;;;;;;;71.93;29.60;;;;;;;7.83;100.00;101982.09;7396648;19;20526;-52
2021/11/14 11:21:08;;;;;;;68.53;29.00;;;;;;;7.84;100.00;101984.78;7403209;19;20656;-49
2021/11/14 11:23:45;;;;;;;70.60;29.47;;;;;;;7.88;100.00;101995.28;7396084;19;20422;-53
2021/11/14 11:26:17;;;;;;;70.57;30.60;;;;;;;7.92;100.00;101995.63;7404229;19;20388;-52